Time;durP1;ratioP1;P1;durP2;ratioP2;P2;SDS_P1;SDS_P2;PMS_P1;PMS_P2;Temp;Humidity;BMP_temperature;BMP_pressure;BME280_temperature;BME280_humidity;BME280_pressure;Samples;Min_cycle;Max_cycle;Signal;HPM_P1;HPM_P2
2021/07/05 00:00:02;;;;;;;;;;;;;;;;;;10287236;28;19914;-62
2021/07/05 00:05:03;;;;;;;;;;;;;;;;;;10278596;28;20493;-62
2021/07/05 00:10:00;;;;;;;;;;;;;;;;;;10277509;28;20060;-60
2021/07/05 00:14:58;;;;;;;;;;;;;;;;;;10282403;28;19912;-61
2021/07/05 00:19:57;;;;;;;;;;;;;;;;;;10266515;28;20007;-60
2021/07/05 00:24:54;;;;;;;;;;;;;;;;;;10291771;28;20414;-58
2021/07/05 00:29:52;;;;;;;;;;;;;;;;;;10281023;28;19913;-60
2021/07/05 00:34:49;;;;;;;;;;;;;;;;;;10263149;28;20326;-62
2021/07/05 00:39:46;;;;;;;;;;;;;;;;;;10269249;28;20015;-62
2021/07/05 00:44:44;;;;;;;;;;;;;;;;;;10268047;28;19916;-60
2021/07/05 00:49:41;;;;;;;;;;;;;;;;;;10283586;28;19992;-60
2021/07/05 00:54:38;;;;;;;;;;;;;;;;;;10290741;28;19917;-61
2021/07/05 00:59:35;;;;;;;;;;;;;;;;;;10285496;28;20321;-62
2021/07/05 01:04:33;;;;;;;;;;;;;;;;;;10268028;28;19917;-61
2021/07/05 01:09:30;;;;;;;;;;;;;;;;;;10285337;28;19913;-61
2021/07/05 01:14:27;;;;;;;;;;;;;;;;;;10269631;28;19917;-63
2021/07/05 01:19:24;;;;;;;;;;;;;;;;;;10272188;28;19917;-61
2021/07/05 01:24:22;;;;;;;;;;;;;;;;;;10286732;28;20392;-61
2021/07/05 01:29:19;;;;;;;;;;;;;;;;;;10291089;28;19995;-60
2021/07/05 01:34:16;;;;;;;;;;;;;;;;;;10278691;28;19917;-61
2021/07/05 01:39:14;;;;;;;;;;;;;;;;;;10261529;28;19921;-59
2021/07/05 01:44:11;;;;;;;;;;;;;;;;;;10279247;28;19980;-62
2021/07/05 01:49:08;;;;;;;;;;;;;;;;;;10296588;28;20116;-65
2021/07/05 01:54:06;;;;;;;;;;;;;;;;;;10287478;28;19932;-61
2021/07/05 01:59:03;;;;;;;;;;;;;;;;;;10273175;28;20363;-59
2021/07/05 02:04:00;;;;;;;;;;;;;;;;;;10291461;28;19913;-59
2021/07/05 02:08:57;;;;;;;;;;;;;;;;;;10272017;28;19924;-59
2021/07/05 02:13:55;;;;;;;;;;;;;;;;;;10282718;28;19936;-60
2021/07/05 02:18:52;;;;;;;;;;;;;;;;;;10273636;28;20012;-60
2021/07/05 02:23:49;;;;;;;;;;;;;;;;;;10296197;28;20023;-62
2021/07/05 02:28:46;;;;;;;;;;;;;;;;;;10298932;28;19939;-60
2021/07/05 02:33:44;;;;;;;;;;;;;;;;;;10273172;28;19928;-61
2021/07/05 02:38:41;;;;;;;;;;;;;;;;;;10265486;28;20375;-60
2021/07/05 02:43:38;;;;;;;;;;;;;;;;;;10256173;28;19914;-62
2021/07/05 02:48:35;;;;;;;;;;;;;;;;;;10300101;28;19927;-60
2021/07/05 02:53:33;;;;;;;;;;;;;;;;;;10288203;28;19927;-61
2021/07/05 02:58:30;;;;;;;;;;;;;;;;;;10291671;28;20355;-61
2021/07/05 03:03:27;;;;;;;;;;;;;;;;;;10302702;28;19921;-61
2021/07/05 03:08:24;;;;;;;;;;;;;;;;;;10288892;28;20106;-61
2021/07/05 03:13:22;;;;;;;;;;;;;;;;;;10296861;28;19924;-60
2021/07/05 03:18:19;;;;;;;;;;;;;;;;;;10310917;28;19920;-61
2021/07/05 03:23:16;;;;;;;;;;;;;;;;;;10293194;28;20298;-62
2021/07/05 03:28:14;;;;;;;;;;;;;;;;;;10293556;28;20382;-58
2021/07/05 03:33:11;;;;;;;;;;;;;;;;;;10288517;28;19921;-60
2021/07/05 03:38:08;;;;;;;;;;;;;;;;;;10304088;28;19921;-58
2021/07/05 03:43:06;;;;;;;;;;;;;;;;;;10298823;28;20410;-61
2021/07/05 03:48:03;;;;;;;;;;;;;;;;;;10284505;28;19913;-61
2021/07/05 03:53:00;;;;;;;;;;;;;;;;;;10275235;28;19917;-61
2021/07/05 03:57:57;;;;;;;;;;;;;;;;;;10300186;28;19944;-61
2021/07/05 04:02:55;;;;;;;;;;;;;;;;;;10296854;28;19909;-64
2021/07/05 04:07:52;;;;;;;;;;;;;;;;;;10309387;28;19909;-61
2021/07/05 04:12:49;;;;;;;;;;;;;;;;;;10306113;28;19924;-60
2021/07/05 04:17:46;;;;;;;;;;;;;;;;;;10305948;28;19913;-61
2021/07/05 04:22:44;;;;;;;;;;;;;;;;;;10305082;28;20151;-62
2021/07/05 04:27:41;;;;;;;;;;;;;;;;;;10288081;28;19944;-61
2021/07/05 04:32:38;;;;;;;;;;;;;;;;;;10271905;28;20389;-64
2021/07/05 04:37:37;;;;;;;;;;;;;;;;;;10281805;28;19921;-64
2021/07/05 04:42:38;;;;;;;;;;;;;;;;;;10299369;28;20386;-65
2021/07/05 04:47:35;;;;;;;;;;;;;;;;;;10299866;28;20008;-64
2021/07/05 04:52:32;;;;;;;;;;;;;;;;;;10292541;28;20015;-63
2021/07/05 04:57:30;;;;;;;;;;;;;;;;;;10271806;28;19925;-63
2021/07/05 05:02:27;;;;;;;;;;;;;;;;;;10279678;28;20286;-64
2021/07/05 05:07:24;;;;;;;;;;;;;;;;;;10286657;28;19921;-64
2021/07/05 05:12:21;;;;;;;;;;;;;;;;;;10289358;28;20155;-63
2021/07/05 05:17:19;;;;;;;;;;;;;;;;;;10293009;28;19913;-63
2021/07/05 05:22:16;;;;;;;;;;;;;;;;;;10291200;28;20533;-61
2021/07/05 05:27:15;;;;;;;;;;;;;;;;;;10270960;28;19933;-65
2021/07/05 05:32:12;;;;;;;;;;;;;;;;;;10279324;28;20360;-62
2021/07/05 05:37:09;;;;;;;;;;;;;;;;;;10283597;28;19921;-62
2021/07/05 05:42:07;;;;;;;;;;;;;;;;;;10291720;28;19913;-62
2021/07/05 05:47:04;;;;;;;;;;;;;;;;;;10287357;28;19920;-62
2021/07/05 05:52:01;;;;;;;;;;;;;;;;;;10270883;28;19939;-65
2021/07/05 05:56:59;;;;;;;;;;;;;;;;;;10254535;28;19917;-64
2021/07/05 06:01:56;;;;;;;;;;;;;;;;;;10250819;28;20433;-63
2021/07/05 06:06:53;;;;;;;;;;;;;;;;;;10273993;28;20375;-63
2021/07/05 06:11:50;;;;;;;;;;;;;;;;;;10264089;28;19928;-62
2021/07/05 06:16:48;;;;;;;;;;;;;;;;;;10270866;28;20384;-62
2021/07/05 06:21:45;;;;;;;;;;;;;;;;;;10262029;28;20359;-63
2021/07/05 06:26:42;;;;;;;;;;;;;;;;;;10273174;28;20247;-64
2021/07/05 06:31:41;;;;;;;;;;;;;;;;;;10254103;28;19918;-62
2021/07/05 06:36:38;;;;;;;;;;;;;;;;;;10257633;28;20468;-65
2021/07/05 06:41:35;;;;;;;;;;;;;;;;;;10259156;28;19913;-61
2021/07/05 06:46:33;;;;;;;;;;;;;;;;;;10253030;28;20113;-63
2021/07/05 06:51:31;;;;;;;;;;;;;;;;;;10269637;28;20047;-63
2021/07/05 06:56:29;;;;;;;;;;;;;;;;;;10269210;28;19976;-64
2021/07/05 07:01:26;;;;;;;;;;;;;;;;;;10257941;28;20268;-64
2021/07/05 07:06:23;;;;;;;;;;;;;;;;;;10264897;28;19924;-64
2021/07/05 07:11:20;;;;;;;;;;;;;;;;;;10269289;28;19925;-65
2021/07/05 07:16:20;;;;;;;;;;;;;;;;;;10276226;28;20312;-64
2021/07/05 07:21:17;;;;;;;;;;;;;;;;;;10258514;28;20362;-64
2021/07/05 07:26:15;;;;;;;;;;;;;;;;;;10259307;28;19917;-62
2021/07/05 07:31:12;;;;;;;;;;;;;;;;;;10256495;28;19968;-66
2021/07/05 07:36:10;;;;;;;;;;;;;;;;;;10256965;28;19927;-67
2021/07/05 07:41:07;;;;;;;;;;;;;;;;;;10255072;28;19914;-64
2021/07/05 07:46:04;;;;;;;;;;;;;;;;;;10255049;28;19982;-68
2021/07/05 07:51:02;;;;;;;;;;;;;;;;;;10256422;28;19996;-64
2021/07/05 07:55:59;;;;;;;;;;;;;;;;;;10259843;28;20016;-64
2021/07/05 08:00:56;;;;;;;;;;;;;;;;;;10259584;28;20307;-64
2021/07/05 08:05:55;;;;;;;;;;;;;;;;;;10276811;28;20377;-63
2021/07/05 08:10:52;;;;;;;;;;;;;;;;;;10282106;28;20465;-64
2021/07/05 08:15:52;;;;;;;;;;;;;;;;;;10268390;28;19957;-64
2021/07/05 08:20:49;;;;;;;;;;;;;;;;;;10267453;28;19980;-64
2021/07/05 08:25:46;;;;;;;;;;;;;;;;;;10273883;28;19963;-63
2021/07/05 08:30:44;;;;;;;;;;;;;;;;;;10275306;28;19978;-65
2021/07/05 08:35:41;;;;;;;;;;;;;;;;;;10263341;28;19921;-66
2021/07/05 08:40:39;;;;;;;;;;;;;;;;;;10262982;28;20239;-64
2021/07/05 08:45:36;;;;;;;;;;;;;;;;;;10273374;28;19917;-65
2021/07/05 08:50:33;;;;;;;;;;;;;;;;;;10280600;28;20190;-65
2021/07/05 08:55:31;;;;;;;;;;;;;;;;;;10266761;28;19921;-66
2021/07/05 09:00:28;;;;;;;;;;;;;;;;;;10255995;28;20039;-64
2021/07/05 09:05:25;;;;;;;;;;;;;;;;;;10278592;28;20453;-65
2021/07/05 09:10:23;;;;;;;;;;;;;;;;;;10277439;28;20382;-64
2021/07/05 09:15:20;;;;;;;;;;;;;;;;;;10275736;28;19927;-67
2021/07/05 09:20:18;;;;;;;;;;;;;;;;;;10275786;28;19913;-66
2021/07/05 09:25:15;;;;;;;;;;;;;;;;;;10274794;28;19921;-65
2021/07/05 09:30:12;;;;;;;;;;;;;;;;;;10255378;28;19913;-64
2021/07/05 09:35:09;;;;;;;;;;;;;;;;;;10277016;28;20401;-63
2021/07/05 09:40:07;;;;;;;;;;;;;;;;;;10271367;28;20338;-66
2021/07/05 09:45:04;;;;;;;;;;;;;;;;;;10263983;28;20024;-70
2021/07/05 09:50:01;;;;;;;;;;;;;;;;;;10243180;28;20414;-69
2021/07/05 09:54:58;;;;;;;;;;;;;;;;;;10255974;28;21001;-69
2021/07/05 09:59:56;;;;;;;;;;;;;;;;;;10259787;28;20568;-65
2021/07/05 10:04:53;;;;;;;;;;;;;;;;;;10279270;28;19917;-64
2021/07/05 10:09:50;;;;;;;;;;;;;;;;;;10286920;28;19913;-64
2021/07/05 10:14:47;;;;;;;;;;;;;;;;;;10272461;28;20004;-65
2021/07/05 10:19:45;;;;;;;;;;;;;;;;;;10258263;28;19917;-65
2021/07/05 10:24:42;;;;;;;;;;;;;;;;;;10275613;28;20258;-65
2021/07/05 10:29:39;;;;;;;;;;;;;;;;;;10302190;28;19912;-64
2021/07/05 10:34:37;;;;;;;;;;;;;;;;;;10278521;28;19936;-65
2021/07/05 10:39:34;;;;;;;;;;;;;;;;;;10278200;28;19910;-64
2021/07/05 10:44:31;;;;;;;;;;;;;;;;;;10289351;28;19972;-65
2021/07/05 10:49:31;;;;;;;;;;;;;;;;;;10293559;28;20835;-64
2021/07/05 10:54:28;;;;;;;;;;;;;;;;;;10291618;28;19921;-63
2021/07/05 10:59:26;;;;;;;;;;;;;;;;;;10292345;28;19916;-64
2021/07/05 11:04:30;;;;;;;;;;;;;;;;;;10279345;28;20271;-66
2021/07/05 11:09:27;;;;;;;;;;;;;;;;;;10273710;28;20529;-63
2021/07/05 11:14:25;;;;;;;;;;;;;;;;;;10286402;28;19939;-64
2021/07/05 11:19:22;;;;;;;;;;;;;;;;;;10265402;28;19924;-64
2021/07/05 11:24:19;;;;;;;;;;;;;;;;;;10286715;28;20015;-67
2021/07/05 11:29:17;;;;;;;;;;;;;;;;;;10289435;28;20355;-63
2021/07/05 11:34:15;;;;;;;;;;;;;;;;;;10292975;28;19920;-64
2021/07/05 11:39:12;;;;;;;;;;;;;;;;;;10281253;28;19917;-63
2021/07/05 11:44:12;;;;;;;;;;;;;;;;;;10291602;28;19913;-64
2021/07/05 11:49:09;;;;;;;;;;;;;;;;;;10293081;28;20362;-68
2021/07/05 11:54:07;;;;;;;;;;;;;;;;;;10245979;28;19956;-64
2021/07/05 11:59:04;;;;;;;;;;;;;;;;;;10283420;28;19995;-63
2021/07/05 12:04:02;;;;;;;;;;;;;;;;;;10254982;28;19928;-63
2021/07/05 12:08:59;;;;;;;;;;;;;;;;;;10278557;28;20142;-65
2021/07/05 12:13:56;;;;;;;;;;;;;;;;;;10273672;28;19975;-64
2021/07/05 12:18:53;;;;;;;;;;;;;;;;;;10286577;28;20479;-66
2021/07/05 12:23:51;;;;;;;;;;;;;;;;;;10288587;28;19923;-64
2021/07/05 12:28:48;;;;;;;;;;;;;;;;;;10286243;28;19916;-64
2021/07/05 12:33:45;;;;;;;;;;;;;;;;;;10283721;28;20320;-63
2021/07/05 12:38:42;;;;;;;;;;;;;;;;;;10298793;28;19924;-65
2021/07/05 12:43:40;;;;;;;;;;;;;;;;;;10280721;28;19921;-65
2021/07/05 12:48:37;;;;;;;;;;;;;;;;;;10273785;28;19913;-68
2021/07/05 12:53:35;;;;;;;;;;;;;;;;;;10259484;28;19921;-66
2021/07/05 12:58:32;;;;;;;;;;;;;;;;;;10270566;28;19913;-66
2021/07/05 13:03:29;;;;;;;;;;;;;;;;;;10284093;28;19913;-64
2021/07/05 13:08:27;;;;;;;;;;;;;;;;;;10275125;28;19917;-63
2021/07/05 13:13:24;;;;;;;;;;;;;;;;;;10272617;28;19921;-65
2021/07/05 13:18:22;;;;;;;;;;;;;;;;;;10272379;28;20366;-64
2021/07/05 13:23:19;;;;;;;;;;;;;;;;;;10279919;28;19921;-65
2021/07/05 13:28:16;;;;;;;;;;;;;;;;;;10288105;28;20339;-64
2021/07/05 13:33:13;;;;;;;;;;;;;;;;;;10271791;28;19916;-65
2021/07/05 13:38:11;;;;;;;;;;;;;;;;;;10282491;28;20418;-64
2021/07/05 13:43:08;;;;;;;;;;;;;;;;;;10282487;28;19919;-65
2021/07/05 13:48:05;;;;;;;;;;;;;;;;;;10291755;28;19921;-64
2021/07/05 13:53:03;;;;;;;;;;;;;;;;;;10260133;28;19917;-64
2021/07/05 13:58:00;;;;;;;;;;;;;;;;;;10269710;28;20274;-64
2021/07/05 14:02:57;;;;;;;;;;;;;;;;;;10285509;28;20011;-64
2021/07/05 14:07:55;;;;;;;;;;;;;;;;;;10294726;28;19925;-65
2021/07/05 14:12:53;;;;;;;;;;;;;;;;;;10289603;28;19928;-67
2021/07/05 14:17:50;;;;;;;;;;;;;;;;;;10295161;28;19913;-65
2021/07/05 14:22:47;;;;;;;;;;;;;;;;;;10275580;28;19960;-64
2021/07/05 14:27:45;;;;;;;;;;;;;;;;;;10285886;28;20429;-65
2021/07/05 14:32:43;;;;;;;;;;;;;;;;;;10278691;28;19967;-66
2021/07/05 14:37:40;;;;;;;;;;;;;;;;;;10283207;28;19917;-65
2021/07/05 14:42:37;;;;;;;;;;;;;;;;;;10290707;28;19999;-66
2021/07/05 14:47:35;;;;;;;;;;;;;;;;;;10254232;28;19917;-64
2021/07/05 14:52:34;;;;;;;;;;;;;;;;;;10285464;28;20078;-65
2021/07/05 14:57:31;;;;;;;;;;;;;;;;;;10284578;28;19921;-63
2021/07/05 15:02:29;;;;;;;;;;;;;;;;;;10290423;28;19921;-63
2021/07/05 15:07:26;;;;;;;;;;;;;;;;;;10290908;28;20021;-65
2021/07/05 15:12:24;;;;;;;;;;;;;;;;;;10289061;28;19984;-65
2021/07/05 15:17:21;;;;;;;;;;;;;;;;;;10293030;28;20171;-64
2021/07/05 15:22:18;;;;;;;;;;;;;;;;;;10292005;28;19920;-65
2021/07/05 15:27:15;;;;;;;;;;;;;;;;;;10291423;28;19913;-66
2021/07/05 15:32:13;;;;;;;;;;;;;;;;;;10284207;28;20408;-66
2021/07/05 15:37:10;;;;;;;;;;;;;;;;;;10285789;28;19917;-68
2021/07/05 15:42:07;;;;;;;;;;;;;;;;;;10279948;28;19913;-66
2021/07/05 15:47:05;;;;;;;;;;;;;;;;;;10289608;28;20173;-66
2021/07/05 15:52:02;;;;;;;;;;;;;;;;;;10273479;28;19921;-65
2021/07/05 15:56:59;;;;;;;;;;;;;;;;;;10295586;28;20390;-64
2021/07/05 16:01:56;;;;;;;;;;;;;;;;;;10302380;28;19924;-66
2021/07/05 16:06:54;;;;;;;;;;;;;;;;;;10296744;28;19912;-64
2021/07/05 16:11:51;;;;;;;;;;;;;;;;;;10293743;28;20406;-65
2021/07/05 16:16:48;;;;;;;;;;;;;;;;;;10295211;28;20082;-66
2021/07/05 16:21:45;;;;;;;;;;;;;;;;;;10293735;28;19913;-66
2021/07/05 16:26:43;;;;;;;;;;;;;;;;;;10296776;28;20348;-66
2021/07/05 16:31:40;;;;;;;;;;;;;;;;;;10279622;28;19925;-65
2021/07/05 16:36:37;;;;;;;;;;;;;;;;;;10294081;28;20366;-66
2021/07/05 16:41:35;;;;;;;;;;;;;;;;;;10289059;28;19921;-65
2021/07/05 16:46:32;;;;;;;;;;;;;;;;;;10293775;28;20027;-66
2021/07/05 16:51:43;;;;;;;;;;;;;;;;;;10261972;28;20382;-65
2021/07/05 16:56:40;;;;;;;;;;;;;;;;;;10292645;28;20252;-65
2021/07/05 17:01:37;;;;;;;;;;;;;;;;;;10272926;28;19943;-65
2021/07/05 17:06:35;;;;;;;;;;;;;;;;;;10277152;28;20017;-66
2021/07/05 17:11:33;;;;;;;;;;;;;;;;;;10279922;28;20034;-66
2021/07/05 17:16:30;;;;;;;;;;;;;;;;;;10289552;28;19921;-65
2021/07/05 17:21:28;;;;;;;;;;;;;;;;;;10287113;28;19917;-66
2021/07/05 17:26:25;;;;;;;;;;;;;;;;;;10263750;28;19989;-65
2021/07/05 17:31:22;;;;;;;;;;;;;;;;;;10288585;28;19913;-67
2021/07/05 17:36:20;;;;;;;;;;;;;;;;;;10262633;28;19921;-66
2021/07/05 17:41:17;;;;;;;;;;;;;;;;;;10292073;28;20271;-66
2021/07/05 17:46:14;;;;;;;;;;;;;;;;;;10285965;28;20378;-66
2021/07/05 17:51:11;;;;;;;;;;;;;;;;;;10301476;28;19913;-66
2021/07/05 17:56:09;;;;;;;;;;;;;;;;;;10274997;28;20003;-67
2021/07/05 18:01:06;;;;;;;;;;;;;;;;;;10283629;28;19917;-66
2021/07/05 18:06:03;;;;;;;;;;;;;;;;;;10284464;28;19978;-67
2021/07/05 18:11:03;;;;;;;;;;;;;;;;;;10248988;28;20348;-65
2021/07/05 18:16:00;;;;;;;;;;;;;;;;;;10288384;28;20012;-66
2021/07/05 18:20:58;;;;;;;;;;;;;;;;;;10276734;28;20000;-66
2021/07/05 18:25:58;;;;;;;;;;;;;;;;;;10296528;28;20183;-66
2021/07/05 18:30:55;;;;;;;;;;;;;;;;;;10276137;28;20406;-66
2021/07/05 18:35:55;;;;;;;;;;;;;;;;;;10272035;28;19924;-66
2021/07/05 18:40:52;;;;;;;;;;;;;;;;;;10288583;28;19913;-67
2021/07/05 18:45:49;;;;;;;;;;;;;;;;;;10292589;28;19916;-67
2021/07/05 18:50:46;;;;;;;;;;;;;;;;;;10290091;28;20008;-67
2021/07/05 18:55:44;;;;;;;;;;;;;;;;;;10290937;28;20279;-67
2021/07/05 19:00:41;;;;;;;;;;;;;;;;;;10293198;28;20011;-67
2021/07/05 19:05:38;;;;;;;;;;;;;;;;;;10289040;28;19913;-67
2021/07/05 19:10:36;;;;;;;;;;;;;;;;;;10249346;28;19917;-70
2021/07/05 19:15:33;;;;;;;;;;;;;;;;;;10272945;28;20048;-67
2021/07/05 19:20:30;;;;;;;;;;;;;;;;;;10289187;28;25846;-68
2021/07/05 19:25:28;;;;;;;;;;;;;;;;;;10289504;28;19912;-66
2021/07/05 19:30:25;;;;;;;;;;;;;;;;;;10285189;28;19909;-66
2021/07/05 19:35:22;;;;;;;;;;;;;;;;;;10285454;28;20397;-71
2021/07/05 19:40:19;;;;;;;;;;;;;;;;;;10287117;28;19916;-67
2021/07/05 19:45:17;;;;;;;;;;;;;;;;;;10285259;28;19917;-66
2021/07/05 19:50:14;;;;;;;;;;;;;;;;;;10288445;28;19916;-69
2021/07/05 19:55:12;;;;;;;;;;;;;;;;;;10278159;28;19913;-70
2021/07/05 20:00:10;;;;;;;;;;;;;;;;;;10260298;28;20016;-65
2021/07/05 20:05:07;;;;;;;;;;;;;;;;;;10283708;28;20045;-67
2021/07/05 20:10:04;;;;;;;;;;;;;;;;;;10272906;28;20024;-66
2021/07/05 20:15:02;;;;;;;;;;;;;;;;;;10293117;28;20044;-66
2021/07/05 20:19:59;;;;;;;;;;;;;;;;;;10293729;28;19913;-67
2021/07/05 20:24:56;;;;;;;;;;;;;;;;;;10276694;28;19913;-65
2021/07/05 20:29:53;;;;;;;;;;;;;;;;;;10261377;28;20394;-66
2021/07/05 20:34:51;;;;;;;;;;;;;;;;;;10277988;28;20287;-65
2021/07/05 20:39:48;;;;;;;;;;;;;;;;;;10250055;28;20406;-66
2021/07/05 20:44:47;;;;;;;;;;;;;;;;;;10291194;28;19914;-66
2021/07/05 20:49:44;;;;;;;;;;;;;;;;;;10291102;28;19956;-67
2021/07/05 20:54:42;;;;;;;;;;;;;;;;;;10265586;28;19973;-66
2021/07/05 20:59:39;;;;;;;;;;;;;;;;;;10292026;28;20374;-66
2021/07/05 21:04:36;;;;;;;;;;;;;;;;;;10292007;28;19924;-66
2021/07/05 21:09:33;;;;;;;;;;;;;;;;;;10272124;28;19952;-67
2021/07/05 21:14:30;;;;;;;;;;;;;;;;;;10281779;28;19917;-67
2021/07/05 21:19:28;;;;;;;;;;;;;;;;;;10265564;28;21141;-66
2021/07/05 21:24:25;;;;;;;;;;;;;;;;;;10286830;28;20358;-67
2021/07/05 21:29:22;;;;;;;;;;;;;;;;;;10296391;28;19920;-69
2021/07/05 21:34:20;;;;;;;;;;;;;;;;;;10264970;28;19928;-67
2021/07/05 21:39:17;;;;;;;;;;;;;;;;;;10279925;28;20614;-65
2021/07/05 21:44:14;;;;;;;;;;;;;;;;;;10287074;28;19916;-67
2021/07/05 21:49:12;;;;;;;;;;;;;;;;;;10279511;28;20244;-70
2021/07/05 21:54:09;;;;;;;;;;;;;;;;;;10250441;28;20020;-64
2021/07/05 21:59:07;;;;;;;;;;;;;;;;;;10279765;28;19916;-64
2021/07/05 22:04:04;;;;;;;;;;;;;;;;;;10262280;28;19917;-66
2021/07/05 22:09:01;;;;;;;;;;;;;;;;;;10271459;28;20020;-69
2021/07/05 22:13:58;;;;;;;;;;;;;;;;;;10265317;28;19985;-66
2021/07/05 22:18:56;;;;;;;;;;;;;;;;;;10275833;28;19913;-69
2021/07/05 22:23:53;;;;;;;;;;;;;;;;;;10270588;28;19913;-65
2021/07/05 22:28:50;;;;;;;;;;;;;;;;;;10294461;28;20476;-65
2021/07/05 22:33:47;;;;;;;;;;;;;;;;;;10277077;28;20446;-66
2021/07/05 22:38:45;;;;;;;;;;;;;;;;;;10285765;28;19918;-65
2021/07/05 22:43:42;;;;;;;;;;;;;;;;;;10288011;28;19993;-67
2021/07/05 22:48:39;;;;;;;;;;;;;;;;;;10266081;28;20283;-66
2021/07/05 22:53:36;;;;;;;;;;;;;;;;;;10281981;28;19925;-65
2021/07/05 22:58:34;;;;;;;;;;;;;;;;;;10287483;28;19928;-65
2021/07/05 23:03:31;;;;;;;;;;;;;;;;;;10275461;28;19917;-66
2021/07/05 23:08:28;;;;;;;;;;;;;;;;;;10266915;28;19921;-66
2021/07/05 23:13:26;;;;;;;;;;;;;;;;;;10288130;28;19978;-65
2021/07/05 23:18:23;;;;;;;;;;;;;;;;;;10264704;28;20259;-65
2021/07/05 23:23:21;;;;;;;;;;;;;;;;;;10273762;28;19917;-66
2021/07/05 23:28:18;;;;;;;;;;;;;;;;;;10285989;28;19956;-66
2021/07/05 23:33:15;;;;;;;;;;;;;;;;;;10294034;28;19978;-65
2021/07/05 23:38:12;;;;;;;;;;;;;;;;;;10284325;28;19921;-66
2021/07/05 23:43:10;;;;;;;;;;;;;;;;;;10278751;28;19967;-67
2021/07/05 23:48:07;;;;;;;;;;;;;;;;;;10281625;28;19917;-67
2021/07/05 23:53:04;;;;;;;;;;;;;;;;;;10279070;28;20000;-65
2021/07/05 23:58:02;;;;;;;;;;;;;;;;;;10256402;28;19913;-65
